Time;durP1;ratioP1;P1;durP2;ratioP2;P2;SDS_P1;SDS_P2;PMS_P1;PMS_P2;Temp;Humidity;BMP_temperature;BMP_pressure;BME280_temperature;BME280_humidity;BME280_pressure;Samples;Min_cycle;Max_cycle;Signal;HPM_P1;HPM_P2
2021/12/23 00:01:42;;;;;;;28.20;12.00;;;-1.50;65.60;;;;;;2368784;54;20925;-75
2021/12/23 00:04:10;;;;;;;27.58;10.60;;;-1.50;65.60;;;;;;2528161;52;21473;-74
2021/12/23 00:06:37;;;;;;;30.52;11.30;;;-1.50;65.70;;;;;;2469082;52;20984;-76
2021/12/23 00:09:04;;;;;;;24.08;10.02;;;-1.50;65.60;;;;;;2347953;53;21060;-76
2021/12/23 00:11:31;;;;;;;28.95;11.68;;;-1.40;65.70;;;;;;2406895;52;20964;-75
2021/12/23 00:14:06;;;;;;;28.95;12.32;;;-1.40;65.70;;;;;;2370449;54;20937;-76
2021/12/23 00:16:44;;;;;;;27.92;11.23;;;-1.40;65.70;;;;;;2511380;52;20909;-76
2021/12/23 00:23:27;;;;;;;24.80;10.43;;;-1.40;65.90;;;;;;2371107;54;21542;-76
2021/12/23 00:25:56;;;;;;;22.40;10.00;;;-1.30;66.20;;;;;;2371732;53;21012;-75
2021/12/23 00:28:22;;;;;;;25.77;10.52;;;-1.30;66.30;;;;;;2360275;53;21322;-75
2021/12/23 00:30:48;;;;;;;27.95;11.27;;;-1.30;66.30;;;;;;2410172;52;21378;-76
2021/12/23 00:33:15;;;;;;;27.60;10.35;;;-1.20;66.40;;;;;;2368890;54;21491;-75
2021/12/23 00:35:41;;;;;;;20.37;8.98;;;-1.20;66.40;;;;;;2411057;52;21354;-76
2021/12/23 00:38:16;;;;;;;22.95;8.98;;;-1.20;66.40;;;;;;2437739;52;21752;-76
2021/12/23 00:41:00;;;;;;;25.08;10.10;;;-1.20;66.40;;;;;;2441242;52;21038;-75
2021/12/23 00:43:26;;;;;;;21.73;9.48;;;-1.10;66.50;;;;;;2372159;54;20932;-77
2021/12/23 00:45:52;;;;;;;24.87;9.73;;;-1.10;66.40;;;;;;2370378;54;20943;-76
2021/12/23 00:48:19;;;;;;;24.08;9.68;;;-1.10;66.40;;;;;;2349544;53;21064;-76
2021/12/23 00:50:46;;;;;;;24.85;9.63;;;-1.10;66.40;;;;;;2369757;53;20929;-76
2021/12/23 00:53:17;;;;;;;22.23;9.32;;;-1.00;66.60;;;;;;2407809;52;20956;-76
2021/12/23 00:55:45;;;;;;;21.33;9.02;;;-1.00;66.60;;;;;;2404315;52;21000;-76
2021/12/23 00:58:11;;;;;;;19.83;8.98;;;-1.00;66.60;;;;;;2369211;54;20941;-76
2021/12/23 01:00:40;;;;;;;19.25;8.18;;;-1.00;66.70;;;;;;2369453;54;20929;-76
2021/12/23 01:03:07;;;;;;;18.60;7.97;;;-0.90;66.80;;;;;;2361301;53;21422;-76
2021/12/23 01:05:33;;;;;;;20.50;9.05;;;-0.90;66.80;;;;;;2412683;52;21584;-76
2021/12/23 01:07:59;;;;;;;20.83;8.75;;;-0.90;66.90;;;;;;2570776;52;21096;-76
2021/12/23 01:10:26;;;;;;;19.17;7.35;;;-0.80;67.00;;;;;;2433371;52;20943;-76
2021/12/23 01:12:59;;;;;;;19.90;8.73;;;-0.80;67.10;;;;;;2598769;52;21381;-77
2021/12/23 01:19:15;;;;;;;16.52;6.72;;;-0.70;67.40;;;;;;2383975;52;21016;-76
2021/12/23 01:21:41;;;;;;;15.77;6.97;;;-0.60;67.40;;;;;;2505732;52;20996;-76
2021/12/23 01:24:09;;;;;;;19.35;7.55;;;-0.60;67.30;;;;;;2622415;52;21492;-76
2021/12/23 01:26:37;;;;;;;17.55;7.28;;;-0.60;67.30;;;;;;2414969;52;20933;-76
2021/12/23 01:29:03;;;;;;;21.05;8.20;;;-0.50;67.80;;;;;;2366249;53;21836;-76
2021/12/23 01:31:30;;;;;;;18.35;7.68;;;-0.50;67.30;;;;;;2369374;54;20996;-76
2021/12/23 01:33:56;;;;;;;19.02;8.15;;;-0.40;67.30;;;;;;2389359;52;21869;-76
2021/12/23 01:36:24;;;;;;;18.85;8.70;;;-0.40;67.20;;;;;;2436987;52;20937;-75
2021/12/23 01:38:51;;;;;;;20.92;8.20;;;-0.40;67.10;;;;;;2582517;52;21488;-77
2021/12/23 01:41:17;;;;;;;18.25;7.95;;;-0.40;67.10;;;;;;2510216;52;20924;-76
2021/12/23 01:43:44;;;;;;;16.35;6.97;;;-0.40;67.10;;;;;;2527090;52;21096;-76
2021/12/23 01:46:12;;;;;;;17.37;7.18;;;-0.40;67.00;;;;;;2369690;54;21427;-76
2021/12/23 01:48:39;;;;;;;20.60;8.00;;;-0.40;67.00;;;;;;2361189;54;20900;-76
2021/12/23 01:51:05;;;;;;;18.65;7.75;;;-0.30;67.00;;;;;;2426302;52;20964;-76
2021/12/23 01:53:32;;;;;;;19.98;8.77;;;-0.30;67.00;;;;;;2350784;53;20885;-76
2021/12/23 01:55:59;;;;;;;19.73;8.75;;;-0.30;67.00;;;;;;2348808;53;20940;-76
2021/12/23 01:58:25;;;;;;;18.73;7.90;;;-0.30;67.00;;;;;;2391409;52;21488;-76
2021/12/23 02:00:51;;;;;;;16.65;7.80;;;-0.30;66.90;;;;;;2360254;53;20980;-75
2021/12/23 02:03:18;;;;;;;20.58;8.05;;;-0.30;66.90;;;;;;2447770;53;21453;-77
2021/12/23 02:05:44;;;;;;;17.17;8.18;;;-0.30;67.00;;;;;;2345904;53;20940;-76
2021/12/23 02:08:21;;;;;;;17.23;7.15;;;-0.20;67.10;;;;;;2369589;54;20948;-76
2021/12/23 02:10:48;;;;;;;14.18;6.68;;;-0.20;67.10;;;;;;2345196;53;20912;-76
2021/12/23 02:13:17;;;;;;;17.33;7.55;;;-0.20;67.10;;;;;;2609079;52;20969;-76
2021/12/23 02:15:43;;;;;;;17.50;7.30;;;-0.20;67.10;;;;;;2375969;52;21019;-76
2021/12/23 02:18:10;;;;;;;15.93;7.18;;;-0.20;67.10;;;;;;2497164;52;20948;-76
2021/12/23 02:20:37;;;;;;;17.95;7.85;;;-0.20;67.20;;;;;;2349878;53;21032;-76
2021/12/23 02:23:04;;;;;;;22.33;8.95;;;-0.10;67.50;;;;;;2370264;54;21003;-77
2021/12/23 02:25:30;;;;;;;18.17;7.70;;;-0.10;67.30;;;;;;2348408;53;21672;-77
2021/12/23 02:27:57;;;;;;;17.73;7.85;;;-0.10;67.40;;;;;;2475312;52;21005;-77
2021/12/23 02:30:25;;;;;;;17.60;7.95;;;-0.10;67.30;;;;;;2621905;52;21536;-76
2021/12/23 02:32:52;;;;;;;18.70;8.05;;;0.00;67.30;;;;;;2623156;52;20901;-76
2021/12/23 02:35:19;;;;;;;18.87;8.30;;;0.00;67.30;;;;;;2622649;52;20905;-75
2021/12/23 02:37:46;;;;;;;18.08;7.93;;;0.00;67.30;;;;;;2470091;52;21048;-76
2021/12/23 02:40:23;;;;;;;22.92;8.98;;;0.00;67.30;;;;;;2351261;53;21044;-76
2021/12/23 02:42:49;;;;;;;20.35;8.40;;;0.10;67.40;;;;;;2445801;52;21595;-76
2021/12/23 02:45:16;;;;;;;20.67;8.98;;;0.10;67.50;;;;;;2364262;53;20988;-76
2021/12/23 02:47:42;;;;;;;22.13;8.52;;;0.10;67.50;;;;;;2369660;54;21444;-76
2021/12/23 02:50:08;;;;;;;19.67;8.23;;;0.10;67.50;;;;;;2405788;52;21158;-76
2021/12/23 02:52:36;;;;;;;20.70;8.82;;;0.20;67.70;;;;;;2368722;53;20921;-76
2021/12/23 02:55:05;;;;;;;23.92;9.73;;;0.20;67.70;;;;;;2370195;53;20945;-76
2021/12/23 02:57:33;;;;;;;20.50;8.57;;;0.20;67.70;;;;;;2371625;53;21008;-76
2021/12/23 02:59:59;;;;;;;20.65;8.82;;;0.20;67.70;;;;;;2349520;53;21304;-77
2021/12/23 03:02:25;;;;;;;18.62;8.25;;;0.30;67.60;;;;;;2366339;53;21426;-76
2021/12/23 03:04:52;;;;;;;19.92;8.18;;;0.30;67.50;;;;;;2412504;52;21374;-76
2021/12/23 03:07:18;;;;;;;21.08;9.43;;;0.30;67.40;;;;;;2416504;52;21690;-75
2021/12/23 03:09:46;;;;;;;23.12;8.85;;;0.30;68.00;;;;;;2361549;53;21043;-76
2021/12/23 03:12:12;;;;;;;16.83;7.78;;;0.30;67.30;;;;;;2493851;52;21025;-76
2021/12/23 03:14:38;;;;;;;20.65;9.18;;;0.40;67.30;;;;;;2581726;52;21355;-76
2021/12/23 03:17:05;;;;;;;21.50;8.82;;;0.40;67.20;;;;;;2347646;53;21027;-76
2021/12/23 03:19:31;;;;;;;21.08;9.75;;;0.40;67.20;;;;;;2359047;53;21032;-76
2021/12/23 03:21:57;;;;;;;20.10;9.13;;;0.40;67.10;;;;;;2387298;53;21477;-76
2021/12/23 03:24:24;;;;;;;21.77;9.02;;;0.30;66.90;;;;;;2353632;53;21028;-76
2021/12/23 03:26:51;;;;;;;22.80;9.95;;;0.40;67.00;;;;;;2357544;53;20965;-76
2021/12/23 03:29:17;;;;;;;21.83;9.70;;;0.40;66.90;;;;;;2455844;52;20925;-76
2021/12/23 03:31:43;;;;;;;20.00;9.57;;;0.30;66.80;;;;;;2368997;54;21726;-76
2021/12/23 03:34:10;;;;;;;19.67;8.57;;;0.30;66.80;;;;;;2606323;52;20944;-76
2021/12/23 03:36:36;;;;;;;19.40;8.18;;;0.40;66.90;;;;;;2622962;52;20956;-76
2021/12/23 03:39:04;;;;;;;22.08;8.88;;;0.40;66.90;;;;;;2481112;52;20949;-76
2021/12/23 03:41:30;;;;;;;20.33;8.60;;;0.40;66.90;;;;;;2348341;53;20932;-76
2021/12/23 03:43:56;;;;;;;20.58;8.25;;;0.30;66.70;;;;;;2370361;54;21017;-76
2021/12/23 03:46:23;;;;;;;18.52;7.65;;;0.30;66.60;;;;;;2352989;53;21378;-76
2021/12/23 03:48:49;;;;;;;18.35;8.25;;;0.30;66.40;;;;;;2602992;52;21496;-76
2021/12/23 03:51:15;;;;;;;22.00;8.60;;;0.30;66.30;;;;;;2419432;52;20936;-76
2021/12/23 03:53:41;;;;;;;21.10;9.10;;;0.30;66.20;;;;;;2501808;52;21436;-76
2021/12/23 03:56:08;;;;;;;18.62;8.25;;;0.30;66.10;;;;;;2368013;54;21289;-77
2021/12/23 03:58:34;;;;;;;22.25;9.50;;;0.20;65.80;;;;;;2370189;54;21060;-76
2021/12/23 04:01:00;;;;;;;23.87;9.85;;;0.20;65.70;;;;;;2361053;53;21019;-75
2021/12/23 04:03:27;;;;;;;19.77;8.27;;;0.20;65.70;;;;;;2594799;52;20940;-76
2021/12/23 04:05:54;;;;;;;21.58;9.32;;;0.10;65.60;;;;;;2493079;52;20936;-76
2021/12/23 04:08:21;;;;;;;23.02;9.30;;;0.10;65.70;;;;;;2467423;52;20968;-75
2021/12/23 04:10:48;;;;;;;20.80;8.88;;;0.10;65.60;;;;;;2350699;53;20948;-76
2021/12/23 04:13:14;;;;;;;20.52;8.80;;;0.10;65.60;;;;;;2460783;52;21470;-76
2021/12/23 04:15:40;;;;;;;20.05;8.75;;;0.00;65.50;;;;;;2409354;52;21776;-76
2021/12/23 04:18:06;;;;;;;21.30;8.63;;;0.00;65.40;;;;;;2370012;54;20953;-76
2021/12/23 04:20:45;;;;;;;18.00;7.80;;;-0.10;65.30;;;;;;2365842;53;21052;-76
2021/12/23 04:23:11;;;;;;;24.85;9.65;;;-0.10;65.30;;;;;;2497644;52;20924;-76
2021/12/23 04:25:38;;;;;;;21.73;8.75;;;-0.10;65.30;;;;;;2464808;52;21436;-76
2021/12/23 04:28:05;;;;;;;21.83;8.98;;;-0.20;65.30;;;;;;2396698;52;21354;-75
2021/12/23 04:30:32;;;;;;;21.85;9.50;;;-0.20;65.40;;;;;;2432097;52;21275;-76
2021/12/23 04:32:58;;;;;;;21.80;10.63;;;-0.20;65.50;;;;;;2377086;52;21026;-75
2021/12/23 04:35:24;;;;;;;23.73;9.90;;;-0.20;65.60;;;;;;2481645;52;20941;-76
2021/12/23 04:37:50;;;;;;;21.35;8.65;;;-0.20;65.60;;;;;;2381308;52;20948;-76
2021/12/23 04:40:17;;;;;;;22.48;9.20;;;-0.30;65.50;;;;;;2369577;54;20996;-76
2021/12/23 04:42:43;;;;;;;24.30;10.00;;;-0.30;65.30;;;;;;2384138;52;21265;-75
2021/12/23 04:45:10;;;;;;;27.52;11.05;;;-0.30;65.30;;;;;;2471520;52;21399;-76
2021/12/23 04:47:36;;;;;;;24.98;9.95;;;-0.30;65.30;;;;;;2356393;52;21513;-76
2021/12/23 04:50:03;;;;;;;27.33;11.60;;;-0.40;65.30;;;;;;2456160;52;21135;-76
2021/12/23 04:52:29;;;;;;;23.73;10.02;;;-0.40;65.50;;;;;;2368146;53;21244;-75
2021/12/23 04:54:56;;;;;;;24.30;10.52;;;-0.40;65.60;;;;;;2396347;52;20925;-76
2021/12/23 04:57:22;;;;;;;20.90;9.18;;;-0.40;65.90;;;;;;2389722;52;20944;-77
2021/12/23 04:59:48;;;;;;;21.58;8.35;;;-0.40;66.10;;;;;;2449752;52;21036;-76
2021/12/23 05:02:15;;;;;;;19.65;8.02;;;-0.40;67.00;;;;;;2369451;54;21417;-76
2021/12/23 05:04:41;;;;;;;19.27;8.57;;;-0.40;66.40;;;;;;2622535;52;21548;-75
2021/12/23 05:07:07;;;;;;;19.37;8.27;;;-0.40;66.40;;;;;;2479744;52;20983;-76
2021/12/23 05:09:33;;;;;;;19.10;8.15;;;-0.40;66.40;;;;;;2376272;52;21126;-76
2021/12/23 05:12:00;;;;;;;18.87;8.80;;;-0.40;66.40;;;;;;2622378;52;20901;-76
2021/12/23 05:14:26;;;;;;;16.92;7.37;;;-0.30;66.50;;;;;;2370841;52;22400;-76
2021/12/23 05:16:52;;;;;;;22.13;9.55;;;-0.30;66.50;;;;;;2528218;52;20908;-76
2021/12/23 05:19:18;;;;;;;17.52;6.78;;;-0.30;66.60;;;;;;2595480;52;21608;-76
2021/12/23 05:21:45;;;;;;;15.82;6.68;;;-0.30;66.60;;;;;;2485475;52;21674;-76
2021/12/23 05:24:11;;;;;;;17.55;7.20;;;-0.30;66.60;;;;;;2576159;52;20956;-76
2021/12/23 05:26:37;;;;;;;16.77;6.80;;;-0.30;66.70;;;;;;2365973;54;20972;-76
2021/12/23 05:29:04;;;;;;;19.10;8.30;;;-0.20;66.80;;;;;;2365617;52;21043;-76
2021/12/23 05:31:31;;;;;;;16.87;8.05;;;-0.20;66.80;;;;;;2434675;52;21088;-77
2021/12/23 05:33:57;;;;;;;20.75;8.80;;;-0.20;66.80;;;;;;2595059;52;20921;-76
2021/12/23 05:36:24;;;;;;;17.92;8.02;;;-0.20;66.90;;;;;;2389820;52;20980;-76
2021/12/23 05:38:50;;;;;;;20.23;8.70;;;-0.20;67.00;;;;;;2369728;54;20936;-76
2021/12/23 05:41:16;;;;;;;23.02;9.50;;;-0.10;67.10;;;;;;2462138;52;20953;-76
2021/12/23 05:43:42;;;;;;;21.17;8.55;;;-0.10;67.20;;;;;;2345834;53;21012;-76
2021/12/23 05:46:09;;;;;;;21.55;9.38;;;-0.10;67.30;;;;;;2362507;53;21024;-76
2021/12/23 05:48:35;;;;;;;20.27;9.20;;;0.00;67.40;;;;;;2351313;53;21049;-77
2021/12/23 05:51:01;;;;;;;22.52;9.63;;;0.00;67.30;;;;;;2409814;52;20929;-76
2021/12/23 05:53:28;;;;;;;19.85;8.18;;;0.00;67.20;;;;;;2451858;52;21743;-76
2021/12/23 05:55:54;;;;;;;23.12;9.43;;;0.10;67.20;;;;;;2425297;52;20917;-76
2021/12/23 05:58:21;;;;;;;25.05;10.05;;;0.10;67.10;;;;;;2507724;52;21387;-76
2021/12/23 06:00:47;;;;;;;24.15;10.43;;;0.10;67.00;;;;;;2349563;53;20932;-76
2021/12/23 06:03:13;;;;;;;20.08;10.10;;;0.10;66.90;;;;;;2468747;52;21302;-77
2021/12/23 06:05:39;;;;;;;25.70;10.75;;;0.10;66.80;;;;;;2587216;52;20925;-76
2021/12/23 06:08:06;;;;;;;29.35;12.27;;;0.10;66.60;;;;;;2432266;52;20953;-76
2021/12/23 06:10:32;;;;;;;28.42;11.98;;;0.10;66.50;;;;;;2417983;52;20920;-76
2021/12/23 06:12:58;;;;;;;29.70;12.43;;;0.10;66.30;;;;;;2373938;52;20991;-76
2021/12/23 06:15:24;;;;;;;26.75;10.68;;;0.10;66.20;;;;;;2452089;52;21019;-76
2021/12/23 06:17:51;;;;;;;29.15;12.52;;;0.10;66.20;;;;;;2416769;52;20931;-76
2021/12/23 06:20:17;;;;;;;26.75;11.25;;;0.10;66.20;;;;;;2392262;52;21821;-76
2021/12/23 06:22:43;;;;;;;29.15;12.07;;;0.00;66.10;;;;;;2370432;54;21381;-76
2021/12/23 06:25:10;;;;;;;20.10;9.77;;;0.00;66.10;;;;;;2409674;52;21075;-76
2021/12/23 06:27:36;;;;;;;22.67;9.07;;;0.00;65.90;;;;;;2420453;52;20964;-76
2021/12/23 06:30:14;;;;;;;22.30;10.40;;;0.00;65.90;;;;;;2361309;53;21330;-76
2021/12/23 06:32:40;;;;;;;23.58;9.30;;;0.00;65.90;;;;;;2369885;54;20945;-76
2021/12/23 06:35:07;;;;;;;17.87;8.48;;;-0.10;65.90;;;;;;2385799;52;20997;-76
2021/12/23 06:37:34;;;;;;;20.58;9.13;;;-0.10;66.00;;;;;;2542040;52;21267;-76
2021/12/23 06:40:00;;;;;;;23.20;9.45;;;-0.10;66.00;;;;;;2348067;53;21076;-76
2021/12/23 06:42:30;;;;;;;20.85;9.35;;;-0.10;66.10;;;;;;2369767;54;20976;-76
2021/12/23 06:44:57;;;;;;;20.45;9.35;;;-0.10;66.20;;;;;;2503257;52;21460;-76
2021/12/23 06:47:23;;;;;;;20.37;9.20;;;-0.10;66.20;;;;;;2368331;54;20909;-75
2021/12/23 06:49:49;;;;;;;21.00;9.55;;;-0.10;66.10;;;;;;2417748;52;20968;-76
2021/12/23 06:52:16;;;;;;;19.70;9.18;;;-0.10;66.10;;;;;;2370689;54;21268;-76
2021/12/23 06:54:47;;;;;;;18.17;8.80;;;-0.10;66.00;;;;;;2358015;53;21104;-76
2021/12/23 06:57:14;;;;;;;16.65;8.05;;;-0.10;66.00;;;;;;2362070;53;21295;-77
2021/12/23 06:59:40;;;;;;;22.00;9.52;;;-0.10;66.00;;;;;;2437256;52;20918;-76
2021/12/23 07:02:06;;;;;;;21.37;9.23;;;-0.20;65.90;;;;;;2588582;52;20948;-76
2021/12/23 07:04:34;;;;;;;21.62;9.60;;;-0.20;65.90;;;;;;2445983;52;21000;-76
2021/12/23 07:07:11;;;;;;;18.62;8.13;;;-0.20;65.90;;;;;;2371429;54;20976;-76
2021/12/23 07:09:40;;;;;;;20.52;9.65;;;-0.10;66.10;;;;;;2353986;53;20992;-76
2021/12/23 07:12:08;;;;;;;22.17;10.35;;;-0.20;66.10;;;;;;2368636;53;21501;-76
2021/12/23 07:14:35;;;;;;;27.73;12.52;;;-0.20;66.10;;;;;;2371969;54;20988;-76
2021/12/23 07:17:01;;;;;;;28.25;11.38;;;-0.20;66.00;;;;;;2377448;52;20996;-76
2021/12/23 07:19:27;;;;;;;26.92;11.35;;;-0.20;65.90;;;;;;2370178;54;21003;-76
2021/12/23 07:21:54;;;;;;;32.22;12.93;;;-0.20;65.90;;;;;;2371621;54;20940;-75
2021/12/23 07:24:20;;;;;;;27.92;11.35;;;-0.20;66.00;;;;;;2417193;52;21004;-76
2021/12/23 07:26:47;;;;;;;30.15;12.70;;;-0.20;66.10;;;;;;2356571;53;21410;-76
2021/12/23 07:29:13;;;;;;;26.90;12.07;;;-0.20;66.20;;;;;;2351802;53;20957;-76
2021/12/23 07:31:39;;;;;;;23.83;11.12;;;-0.20;66.30;;;;;;2446395;52;21501;-76
2021/12/23 07:34:06;;;;;;;22.05;10.80;;;-0.20;66.40;;;;;;2371427;54;21231;-76
2021/12/23 07:36:32;;;;;;;27.13;12.48;;;-0.20;66.50;;;;;;2371884;54;21401;-76
2021/12/23 07:38:58;;;;;;;23.90;11.05;;;-0.20;66.80;;;;;;2370766;54;20928;-76
2021/12/23 07:41:26;;;;;;;27.13;12.52;;;-0.20;66.90;;;;;;2351777;53;20932;-76
2021/12/23 07:43:58;;;;;;;28.62;14.23;;;-0.10;67.10;;;;;;2359813;53;21042;-76
2021/12/23 07:46:26;;;;;;;29.05;13.13;;;-0.10;67.20;;;;;;2497132;53;21454;-76
2021/12/23 07:48:53;;;;;;;30.40;12.90;;;0.00;67.40;;;;;;2371670;54;20944;-76
2021/12/23 07:51:19;;;;;;;28.42;14.10;;;0.10;67.60;;;;;;2414368;52;20987;-76
2021/12/23 07:53:45;;;;;;;28.92;14.45;;;0.10;67.60;;;;;;2491146;52;20949;-76
2021/12/23 07:56:12;;;;;;;28.62;13.82;;;0.10;67.60;;;;;;2360327;52;21016;-76
2021/12/23 07:58:38;;;;;;;29.30;13.55;;;0.10;67.60;;;;;;2438714;52;21524;-75
2021/12/23 08:01:04;;;;;;;25.30;12.48;;;0.20;67.70;;;;;;2429014;52;21307;-76
2021/12/23 08:03:31;;;;;;;24.67;11.68;;;0.20;67.70;;;;;;2570806;52;21528;-76
2021/12/23 08:05:58;;;;;;;26.23;11.88;;;0.30;67.90;;;;;;2396197;52;20901;-76
2021/12/23 08:08:24;;;;;;;24.50;12.10;;;0.30;68.00;;;;;;2371921;54;21394;-76
2021/12/23 08:10:50;;;;;;;24.08;11.43;;;0.40;68.20;;;;;;2371815;54;21024;-76
2021/12/23 08:13:17;;;;;;;29.08;11.98;;;0.40;68.20;;;;;;2624295;52;20920;-76
2021/12/23 08:15:44;;;;;;;24.55;11.23;;;0.50;68.40;;;;;;2393240;52;20961;-76
2021/12/23 08:18:10;;;;;;;28.48;11.90;;;0.50;68.40;;;;;;2453112;52;21299;-76
2021/12/23 08:20:36;;;;;;;24.42;12.00;;;0.60;68.50;;;;;;2371964;54;21525;-76
2021/12/23 08:23:03;;;;;;;28.77;11.80;;;0.60;68.40;;;;;;2371893;54;21501;-76
2021/12/23 08:25:29;;;;;;;28.02;13.10;;;0.70;68.50;;;;;;2351084;52;1251010;-76
2021/12/23 08:27:55;;;;;;;33.40;14.52;;;0.70;68.60;;;;;;2359752;53;21457;-76
2021/12/23 08:30:22;;;;;;;32.45;13.77;;;0.80;68.70;;;;;;2357478;53;21440;-76
2021/12/23 08:32:48;;;;;;;27.50;13.52;;;0.90;68.90;;;;;;2501807;52;20989;-76
2021/12/23 08:35:15;;;;;;;32.95;15.82;;;0.90;68.90;;;;;;2462171;53;20957;-76
2021/12/23 08:37:46;;;;;;;26.55;12.52;;;1.00;68.90;;;;;;2361037;53;20953;-75
2021/12/23 08:40:17;;;;;;;25.58;12.90;;;1.00;68.90;;;;;;2574223;52;21032;-77
2021/12/23 08:42:43;;;;;;;27.00;13.00;;;1.10;69.10;;;;;;2361232;53;21446;-76
2021/12/23 08:45:09;;;;;;;29.73;13.30;;;1.20;69.10;;;;;;2419508;52;21378;-76
2021/12/23 08:47:36;;;;;;;29.00;12.90;;;1.20;69.10;;;;;;2596355;52;20925;-76
2021/12/23 08:50:04;;;;;;;25.88;12.85;;;1.30;69.10;;;;;;2481825;52;20912;-76
2021/12/23 08:52:30;;;;;;;26.73;12.75;;;1.40;69.20;;;;;;2509274;52;21015;-76
2021/12/23 08:54:56;;;;;;;24.30;11.85;;;1.40;69.70;;;;;;2414186;52;20921;-76
2021/12/23 08:57:23;;;;;;;24.77;11.93;;;1.50;69.20;;;;;;2346937;53;20921;-76
2021/12/23 08:59:49;;;;;;;25.52;12.43;;;1.60;69.40;;;;;;2367298;53;20972;-76
2021/12/23 09:02:16;;;;;;;23.30;11.60;;;1.60;69.40;;;;;;2446095;52;20994;-77
2021/12/23 09:04:42;;;;;;;27.15;12.43;;;1.70;69.60;;;;;;2413286;52;20992;-76
2021/12/23 09:07:10;;;;;;;24.98;12.93;;;1.70;69.60;;;;;;2345424;53;21012;-76
2021/12/23 09:09:37;;;;;;;34.65;16.90;;;1.80;69.70;;;;;;2346617;52;21726;-76
2021/12/23 09:12:04;;;;;;;34.15;14.93;;;1.90;69.80;;;;;;2564391;52;20993;-76
2021/12/23 09:14:30;;;;;;;28.08;13.95;;;2.00;69.90;;;;;;2596837;52;20988;-76
2021/12/23 09:16:56;;;;;;;31.37;15.20;;;2.00;69.80;;;;;;2595637;52;20936;-77
2021/12/23 09:19:22;;;;;;;33.47;16.08;;;2.10;70.00;;;;;;2548789;52;20929;-77
2021/12/23 09:21:48;;;;;;;32.53;15.65;;;2.20;70.10;;;;;;2366611;53;21057;-76
2021/12/23 09:24:15;;;;;;;31.90;16.73;;;2.20;70.00;;;;;;2430698;52;21014;-77
2021/12/23 09:26:52;;;;;;;32.78;16.05;;;2.40;70.30;;;;;;2457734;52;21008;-76
2021/12/23 09:36:50;;;;;;;20.48;10.20;;;2.50;70.30;;;;;;2351575;54;21943;-76
2021/12/23 09:39:16;;;;;;;24.37;11.77;;;2.80;70.50;;;;;;2364200;53;21027;-77
2021/12/23 09:41:44;;;;;;;23.52;11.15;;;2.90;70.70;;;;;;2358351;53;21295;-77
2021/12/23 09:44:10;;;;;;;23.77;12.52;;;3.00;70.80;;;;;;2363759;52;21587;-75
2021/12/23 09:46:37;;;;;;;25.83;13.70;;;3.10;70.90;;;;;;2352310;53;21447;-76
2021/12/23 09:49:04;;;;;;;24.20;12.93;;;3.20;70.90;;;;;;2357225;53;20968;-76
2021/12/23 09:51:30;;;;;;;25.00;13.25;;;3.30;70.90;;;;;;2403022;52;21016;-76
2021/12/23 09:54:00;;;;;;;27.50;13.77;;;3.40;71.00;;;;;;2347165;53;20948;-76
2021/12/23 09:56:26;;;;;;;26.52;14.30;;;3.50;71.00;;;;;;2603321;52;21749;-76
2021/12/23 09:58:56;;;;;;;29.48;14.63;;;3.60;70.90;;;;;;2393868;53;20980;-76
2021/12/23 10:01:22;;;;;;;25.15;14.25;;;3.70;70.90;;;;;;2473631;52;21009;-75
2021/12/23 10:03:48;;;;;;;24.17;13.60;;;3.80;70.80;;;;;;2349209;53;21575;-76
2021/12/23 10:06:14;;;;;;;27.50;15.32;;;3.90;70.70;;;;;;2370881;54;21263;-76
2021/12/23 10:08:41;;;;;;;25.92;14.27;;;3.90;70.70;;;;;;2398778;52;21276;-75
2021/12/23 10:11:28;;;;;;;23.23;13.20;;;4.00;70.70;;;;;;2367366;53;21008;-76
2021/12/23 10:30:11;;;;;;;30.45;17.02;;;4.60;71.60;;;;;;2355055;53;20972;-76
2021/12/23 10:41:48;;;;;;;25.92;15.82;;;5.00;71.70;;;;;;2356843;53;21067;-76
2021/12/23 10:44:14;;;;;;;23.25;12.60;;;5.20;71.20;;;;;;2362393;52;21559;-77
2021/12/23 10:46:41;;;;;;;20.23;11.68;;;5.30;72.00;;;;;;2374010;52;20965;-78
2021/12/23 10:49:29;;;;;;;21.48;13.00;;;5.40;72.30;;;;;;2530286;52;20948;-78
2021/12/23 10:52:06;;;;;;;27.25;15.05;;;5.50;73.20;;;;;;2497460;52;20944;-77
2021/12/23 10:59:06;;;;;;;24.80;12.73;;;5.80;72.80;;;;;;2410921;52;20912;-78
2021/12/23 11:01:33;;;;;;;22.90;11.95;;;6.00;72.50;;;;;;2365708;53;20999;-75
2021/12/23 11:04:04;;;;;;;19.98;12.10;;;6.00;72.70;;;;;;2352595;53;21536;-77
2021/12/23 11:06:56;;;;;;;20.33;11.20;;;6.20;72.70;;;;;;2540828;52;20927;-76
2021/12/23 11:09:37;;;;;;;18.50;10.32;;;6.30;72.80;;;;;;2430568;52;21789;-77
2021/12/23 11:27:25;;;;;;;16.87;9.70;;;6.40;72.90;;;;;;2371973;53;21973;-76
